METAR Data
IDs: Format: Raw Decoded Include TAF

Data at: 2122 UTC 10 May 2021

K2V6 102118Z AUTO 04009KT 7SM -RA OVC014 04/M06 A3016 RMK AO2
K2V6 102058Z AUTO 05009G15KT 5SM -RA OVC014 04/M07 A3014 RMK AO2
K2V6 102038Z AUTO 05010KT 4SM DZ SCT010 BKN017 OVC037 04/M07 A3013 RMK AO2
K2V6 102020Z AUTO 05009KT 5SM RA SCT019 SCT024 OVC037 04/M07 A3013 RMK AO2
K2V6 101958Z AUTO 07011KT 10SM -DZ SCT028 BKN040 OVC046 04/M07 A3014 RMK AO2
K2V6 101938Z AUTO 07011KT 7SM -DZ SCT024 BKN029 OVC037 04/M07 A3014 RMK AO2
K2V6 101918Z AUTO 09012G16KT 7SM RA SCT012 BKN029 OVC036 04/M07 A3014 RMK AO2
K2V6 101858Z AUTO 11012KT 7SM DZ BKN013 BKN018 OVC039 05/M07 A3015 RMK AO2
K2V6 101840Z AUTO 12012G16KT 10SM DZ BKN015 OVC024 04/M07 A3015 RMK AO2
K2V6 101818Z AUTO 12012KT 7SM RA SCT020 OVC032 04/M07 A3015 RMK AO2
K2V6 101758Z AUTO 13011KT 10SM -RA SCT018 BKN030 OVC036 05/M07 A3015 RMK AO2 LTG DSNT NW
K2V6 101740Z AUTO 13009KT 10SM DZ SCT020 BKN027 OVC033 05/M08 A3015 RMK AO2
K2V6 101718Z AUTO 12010KT 10SM DZ BKN018 OVC033 05/M08 A3016 RMK AO2
K2V6 101658Z AUTO 13010G16KT 10SM -RA BKN018 OVC026 04/M07 A3016 RMK AO2
K2V6 101638Z AUTO 14013KT 10SM -DZ BKN018 BKN025 OVC050 04/M08 A3016 RMK AO2
K2V6 101618Z AUTO 13012KT 10SM -DZ SCT018 BKN045 OVC055 04/M08 A3016 RMK AO2
K2V6 101558Z AUTO 15013G21KT 10SM SCT023 BKN055 OVC070 06/M09 A3015 RMK AO2
K2V6 101538Z AUTO 14014KT 10SM SCT020 BKN025 OVC070 06/M10 A3015 RMK AO2
K2V6 101518Z AUTO 14015G18KT 10SM SCT020 SCT042 OVC070 06/M10 A3015 RMK AO2
K2V6 101458Z AUTO 15016KT 10SM SCT018 SCT042 OVC070 06/M10 A3015 RMK AO2
K2V6 101440Z AUTO 14015KT 10SM BKN016 BKN080 OVC090 05/M09 A3015 RMK AO2
K2V6 101418Z AUTO 15014KT 10SM BKN014 OVC085 06/M09 A3015 RMK AO2
K2V6 101400Z AUTO 15011G19KT 10SM SCT014 SCT065 OVC085 05/M09 A3015 RMK AO2
K2V6 101340Z AUTO 15014KT 10SM SCT016 OVC085 05/M09 A3015 RMK AO2
K2V6 101320Z AUTO 16011G14KT 10SM OVC095 04/M08 A3014 RMK AO2
K2V6 101258Z AUTO 17011G15KT 10SM OVC085 05/M08 A3014 RMK AO2
K2V6 101238Z AUTO 18006KT 10SM OVC085 04/M08 A3013 RMK AO2
K2V6 101221Z AUTO 18006KT 10SM OVC075 04/M07 A3013 RMK AO2
K2V6 101158Z AUTO 18011G16KT 10SM BKN075 OVC090 04/M07 A3013 RMK AO2
K2V6 101140Z AUTO 18010KT 10SM OVC075 04/M07 A3013 RMK AO2
K2V6 101118Z AUTO 17008KT 10SM OVC075 04/M07 A3013 RMK AO2
K2V6 101058Z AUTO 18009KT 10SM OVC075 05/M07 A3013 RMK AO2
K2V6 101038Z AUTO 18009KT 10SM OVC080 05/M07 A3013 RMK AO2
K2V6 101018Z AUTO 14004KT 10SM OVC080 04/M06 A3013 RMK AO2
K2V6 100958Z AUTO 12005KT 10SM OVC070 04/M06 A3013 RMK AO2
K2V6 100938Z AUTO 11003KT 10SM OVC070 04/M06 A3013 RMK AO2
K2V6 100918Z AUTO 09005KT 10SM OVC070 04/M06 A3013 RMK AO2
K2V6 100858Z AUTO 13004KT 10SM BKN070 OVC090 04/M05 A3012 RMK AO2
K2V6 100838Z AUTO 11003KT 10SM SCT070 OVC090 04/M05 A3011 RMK AO2
K2V6 100818Z AUTO 00000KT 10SM BKN070 OVC110 05/M06 A3011 RMK AO2
K2V6 100758Z AUTO 00000KT 10SM BKN070 OVC120 04/M06 A3011 RMK AO2
K2V6 100738Z AUTO 00000KT 10SM OVC070 04/M06 A3012 RMK AO2
K2V6 100718Z AUTO 00000KT 10SM OVC070 04/M06 A3012 RMK AO2
K2V6 100658Z AUTO 15003KT 10SM OVC070 04/M06 A3013 RMK AO2 LTG DSNT S
K2V6 100640Z AUTO 00000KT 10SM BKN070 OVC120 04/M06 A3013 RMK AO2
K2V6 100618Z AUTO 16004KT 10SM SCT070 BKN120 03/M07 A3012 RMK AO2 LTG DSNT S
K2V6 100558Z AUTO 15006KT 10SM CLR 03/M07 A3012 RMK AO2
K2V6 100538Z AUTO 13003KT 10SM CLR 04/M07 A3013 RMK AO2
K2V6 100518Z AUTO 00000KT 10SM CLR 04/M07 A3013 RMK AO2 LTG DSNT S
K2V6 100458Z AUTO 00000KT 10SM CLR 04/M07 A3013 RMK AO2
K2V6 100438Z AUTO 12003KT 10SM SCT120 04/M07 A3013 RMK AO2
K2V6 100421Z AUTO 14004KT 10SM SCT120 04/M07 A3013 RMK AO2
K2V6 100358Z AUTO 14003KT 10SM SCT080 BKN110 05/M07 A3012 RMK AO2
K2V6 100338Z AUTO 15007KT 10SM SCT080 SCT120 05/M08 A3012 RMK AO2
K2V6 100318Z AUTO 15007KT 10SM SCT080 SCT120 07/M09 A3012 RMK AO2
K2V6 100258Z AUTO 16007KT 10SM SCT120 07/M09 A3011 RMK AO2
K2V6 100238Z AUTO 16009KT 10SM CLR 07/M10 A3010 RMK AO2
K2V6 100218Z AUTO 17009KT 10SM CLR 08/M11 A3010 RMK AO2
K2V6 100158Z AUTO 16008KT 10SM SCT080 SCT100 08/M12 A3009 RMK AO2
K2V6 100129Z AUTO 17004KT 10SM OVC090 08/M13 A3009 RMK AO2
K2V6 100118Z AUTO 14006KT 10SM OVC090 09/M16 A3008 RMK AO2
K2V6 100054Z AUTO 18008KT 10SM BKN080 OVC110 09/M16 A3008 RMK AO2
K2V6 100034Z AUTO 18005KT 10SM SCT080 OVC100 09/M16 A3007 RMK AO2
K2V6 100019Z AUTO 18007KT 10SM BKN080 OVC110 09/M17 A3007 RMK AO2
K2V6 092354Z AUTO 17008KT 10SM OVC100 09/M17 A3007 RMK AO2
K2V6 092334Z AUTO 19007KT 10SM BKN090 OVC110 10/M17 A3007 RMK AO2
K2V6 092319Z AUTO 16007KT 10SM BKN090 OVC110 09/M15 A3006 RMK AO2
K2V6 092254Z AUTO 20007KT 10SM BKN080 OVC110 09/M15 A3006 RMK AO2
K2V6 092238Z AUTO 17009KT 10SM SCT080 OVC095 09/M16 A3006 RMK AO2
K2V6 092214Z AUTO 18009KT 10SM SCT050 BKN065 OVC095 09/M17 A3005 RMK AO2
K2V6 092158Z AUTO 18007KT 10SM SCT049 OVC065 09/M18 A3006 RMK AO2
K2V6 092134Z AUTO 14006KT 10SM SCT036 BKN043 OVC065 08/M19 A3008 RMK AO2
K2V6 092114Z AUTO 08004KT 10SM SCT035 BKN050 OVC070 10/M23 A3007 RMK AO2
K2V6 092100Z AUTO 03006KT 10SM SCT060 BKN075 OVC085 11/M23 A3007 RMK AO2
K2V6 092038Z AUTO 02005KT 10SM SCT050 OVC095 11/M20 A3008 RMK AO2
K2V6 092020Z AUTO 01004KT 10SM SCT050 BKN095 11/M19 A3008 RMK AO2
K2V6 092000Z AUTO 00000KT 10SM BKN095 BKN110 10/M19 A3007 RMK AO2
K2V6 091938Z AUTO 36008KT 10SM BKN085 11/M16 A3008 RMK AO2
K2V6 091918Z AUTO 04004KT 10SM SCT095 10/M16 A3009 RMK AO2
K2V6 091900Z AUTO 36004G14KT 10SM SCT039 SCT049 BKN095 10/M15 A3009 RMK AO2
K2V6 091838Z AUTO 32006KT 10SM SCT037 SCT080 BKN100 09/M12 A3009 RMK AO2
K2V6 091820Z AUTO 35005KT 10SM SCT035 SCT045 BKN120 09/M11 A3010 RMK AO2
K2V6 091758Z AUTO 04005KT 10SM SCT033 BKN090 OVC110 08/M10 A3011 RMK AO2
K2V6 091738Z AUTO 32005KT 10SM OVC090 08/01 A3012 RMK AO2
K2V6 091720Z AUTO 01003KT 10SM SCT030 OVC090 07/01 A3012 RMK AO2
K2V6 091658Z AUTO 01003KT 10SM BKN028 OVC090 07/01 A3013 RMK AO2
K2V6 091638Z AUTO 33006KT 10SM OVC026 07/01 A3013 RMK AO2
K2V6 091618Z AUTO 03008KT 10SM OVC024 07/01 A3013 RMK AO2
K2V6 091558Z AUTO 36004KT 10SM OVC022 06/01 A3012 RMK AO2
K2V6 091538Z AUTO 02008KT 10SM BKN020 BKN025 06/01 A3012 RMK AO2
K2V6 091520Z AUTO 36009KT 10SM BKN018 05/01 A3012 RMK AO2
K2V6 091458Z AUTO 01007KT 10SM BKN020 05/01 A3013 RMK AO2
K2V6 091438Z AUTO 35009KT 10SM BKN020 05/01 A3012 RMK AO2
K2V6 091418Z AUTO 34014KT 10SM BKN020 BKN100 05/01 A3011 RMK AO2
K2V6 091358Z AUTO 35012KT 10SM SCT020 BKN100 04/01 A3010 RMK AO2
K2V6 091334Z AUTO 36009KT 10SM BKN100 03/00 A3010 RMK AO2
K2V6 091314Z AUTO 35007KT 10SM OVC100 03/01 A3010 RMK AO2
K2V6 091254Z AUTO 36009KT 10SM OVC100 02/01 A3009 RMK AO2
K2V6 091234Z AUTO 36010KT 10SM OVC090 02/01 A3008 RMK AO2
K2V6 091214Z AUTO 36011KT 10SM OVC080 02/01 A3007 RMK AO2
K2V6 091154Z AUTO 34008KT 10SM OVC080 02/00 A3007 RMK AO2
K2V6 091134Z AUTO 34005KT 10SM OVC080 01/00 A3006 RMK AO2
K2V6 091114Z AUTO 00000KT 10SM OVC080 01/00 A3005 RMK AO2
K2V6 091059Z AUTO 00000KT 10SM OVC080 01/00 A3004 RMK AO2
K2V6 091029Z AUTO 00000KT 10SM BKN090 BKN100 01/00 A3004 RMK AO2
K2V6 091014Z AUTO 35005KT 10SM SCT100 01/00 A3004 RMK AO2
K2V6 090954Z AUTO 34006KT 10SM CLR 01/00 A3005 RMK AO2
K2V6 090939Z AUTO 35007KT 10SM CLR 01/00 A3004 RMK AO2